sensor_id;sensor_type;location;lat;lon;timestamp;P1;durP1;ratioP1;P2;durP2;ratioP2
24030;SDS011;12240;51.142;22.486;2023-12-07T00:02:51;62.10;;;20.60;;
24030;SDS011;12240;51.142;22.486;2023-12-07T00:05:17;62.70;;;21.80;;
24030;SDS011;12240;51.142;22.486;2023-12-07T00:07:44;63.80;;;21.80;;
24030;SDS011;12240;51.142;22.486;2023-12-07T00:10:10;63.90;;;22.10;;
24030;SDS011;12240;51.142;22.486;2023-12-07T00:12:37;60.50;;;20.10;;
24030;SDS011;12240;51.142;22.486;2023-12-07T00:15:04;53.60;;;19.80;;
24030;SDS011;12240;51.142;22.486;2023-12-07T00:17:32;67.20;;;22.70;;
24030;SDS011;12240;51.142;22.486;2023-12-07T00:19:59;57.60;;;20.10;;
24030;SDS011;12240;51.142;22.486;2023-12-07T00:22:26;64.20;;;20.10;;
24030;SDS011;12240;51.142;22.486;2023-12-07T00:24:55;58.00;;;20.50;;
24030;SDS011;12240;51.142;22.486;2023-12-07T00:27:24;58.30;;;21.80;;
24030;SDS011;12240;51.142;22.486;2023-12-07T00:29:51;60.30;;;21.10;;
24030;SDS011;12240;51.142;22.486;2023-12-07T00:32:17;62.40;;;23.10;;
24030;SDS011;12240;51.142;22.486;2023-12-07T00:34:44;57.20;;;21.00;;
24030;SDS011;12240;51.142;22.486;2023-12-07T00:37:11;58.80;;;21.20;;
24030;SDS011;12240;51.142;22.486;2023-12-07T00:39:38;56.30;;;19.20;;
24030;SDS011;12240;51.142;22.486;2023-12-07T00:42:07;64.80;;;23.20;;
24030;SDS011;12240;51.142;22.486;2023-12-07T00:44:34;61.40;;;21.80;;
24030;SDS011;12240;51.142;22.486;2023-12-07T00:47:05;59.60;;;23.60;;
24030;SDS011;12240;51.142;22.486;2023-12-07T00:49:32;58.30;;;21.40;;
24030;SDS011;12240;51.142;22.486;2023-12-07T12:02:39;59.20;;;22.20;;
24030;SDS011;12240;51.142;22.486;2023-12-07T12:05:06;56.80;;;21.60;;
24030;SDS011;12240;51.142;22.486;2023-12-07T12:07:33;62.00;;;23.30;;
24030;SDS011;12240;51.142;22.486;2023-12-07T12:10:02;51.80;;;20.90;;
24030;SDS011;12240;51.142;22.486;2023-12-07T12:12:32;52.70;;;20.80;;
24030;SDS011;12240;51.142;22.486;2023-12-07T12:14:59;62.30;;;21.30;;
24030;SDS011;12240;51.142;22.486;2023-12-07T12:17:26;51.70;;;19.90;;
24030;SDS011;12240;51.142;22.486;2023-12-07T12:19:53;63.10;;;22.80;;
24030;SDS011;12240;51.142;22.486;2023-12-07T12:22:21;51.20;;;20.60;;
24030;SDS011;12240;51.142;22.486;2023-12-07T12:24:48;52.60;;;21.20;;
24030;SDS011;12240;51.142;22.486;2023-12-07T12:27:15;53.00;;;21.30;;
24030;SDS011;12240;51.142;22.486;2023-12-07T12:29:42;52.30;;;19.50;;
24030;SDS011;12240;51.142;22.486;2023-12-07T12:32:09;53.90;;;20.70;;
24030;SDS011;12240;51.142;22.486;2023-12-07T12:34:36;54.60;;;19.90;;
24030;SDS011;12240;51.142;22.486;2023-12-07T12:37:03;54.80;;;20.70;;
24030;SDS011;12240;51.142;22.486;2023-12-07T12:39:33;50.60;;;19.70;;
24030;SDS011;12240;51.142;22.486;2023-12-07T12:42:02;52.90;;;19.70;;
24030;SDS011;12240;51.142;22.486;2023-12-07T12:44:32;49.00;;;19.20;;
24030;SDS011;12240;51.142;22.486;2023-12-07T12:47:07;52.20;;;19.70;;
24030;SDS011;12240;51.142;22.486;2023-12-07T12:49:39;53.80;;;20.50;;
24030;SDS011;12240;51.142;22.486;2023-12-07T12:52:10;57.40;;;21.20;;
24030;SDS011;12240;51.142;22.486;2023-12-07T12:54:38;54.20;;;21.50;;
24030;SDS011;12240;51.142;22.486;2023-12-07T12:57:06;59.40;;;22.30;;
24030;SDS011;12240;51.142;22.486;2023-12-07T12:59:34;57.30;;;23.40;;
24030;SDS011;12240;51.142;22.486;2023-12-07T13:02:02;55.90;;;21.60;;
24030;SDS011;12240;51.142;22.486;2023-12-07T13:04:31;49.20;;;20.30;;
24030;SDS011;12240;51.142;22.486;2023-12-07T13:07:07;48.80;;;19.00;;
24030;SDS011;12240;51.142;22.486;2023-12-07T13:09:34;57.00;;;23.20;;
24030;SDS011;12240;51.142;22.486;2023-12-07T13:12:01;50.30;;;20.00;;
24030;SDS011;12240;51.142;22.486;2023-12-07T13:14:31;51.10;;;20.00;;
24030;SDS011;12240;51.142;22.486;2023-12-07T13:17:02;56.90;;;20.30;;
24030;SDS011;12240;51.142;22.486;2023-12-07T13:19:30;55.50;;;21.40;;
24030;SDS011;12240;51.142;22.486;2023-12-07T13:21:58;52.20;;;20.50;;
24030;SDS011;12240;51.142;22.486;2023-12-07T13:24:25;53.40;;;21.40;;
24030;SDS011;12240;51.142;22.486;2023-12-07T13:26:52;58.20;;;21.90;;
24030;SDS011;12240;51.142;22.486;2023-12-07T13:29:21;51.90;;;20.50;;
24030;SDS011;12240;51.142;22.486;2023-12-07T13:32:01;51.60;;;20.10;;
24030;SDS011;12240;51.142;22.486;2023-12-07T13:34:28;57.60;;;20.80;;
24030;SDS011;12240;51.142;22.486;2023-12-07T13:36:56;51.80;;;19.60;;
24030;SDS011;12240;51.142;22.486;2023-12-07T13:39:22;54.30;;;20.20;;
24030;SDS011;12240;51.142;22.486;2023-12-07T13:41:56;56.40;;;21.80;;
24030;SDS011;12240;51.142;22.486;2023-12-07T13:44:25;55.10;;;21.10;;
24030;SDS011;12240;51.142;22.486;2023-12-07T13:46:54;58.40;;;21.50;;
24030;SDS011;12240;51.142;22.486;2023-12-07T13:49:23;58.90;;;22.20;;
24030;SDS011;12240;51.142;22.486;2023-12-07T13:51:59;58.00;;;23.30;;
24030;SDS011;12240;51.142;22.486;2023-12-07T13:54:33;63.30;;;21.90;;
24030;SDS011;12240;51.142;22.486;2023-12-07T13:57:19;54.40;;;21.50;;
24030;SDS011;12240;51.142;22.486;2023-12-07T13:59:54;61.60;;;22.90;;
24030;SDS011;12240;51.142;22.486;2023-12-07T14:02:21;58.40;;;21.30;;
24030;SDS011;12240;51.142;22.486;2023-12-07T14:04:48;61.00;;;22.50;;
24030;SDS011;12240;51.142;22.486;2023-12-07T14:07:17;57.20;;;21.70;;
24030;SDS011;12240;51.142;22.486;2023-12-07T14:09:46;59.20;;;21.60;;
24030;SDS011;12240;51.142;22.486;2023-12-07T14:12:23;63.20;;;23.00;;
24030;SDS011;12240;51.142;22.486;2023-12-07T14:14:51;62.20;;;21.40;;
24030;SDS011;12240;51.142;22.486;2023-12-07T14:17:18;59.90;;;22.70;;
24030;SDS011;12240;51.142;22.486;2023-12-07T14:19:46;62.90;;;22.90;;
24030;SDS011;12240;51.142;22.486;2023-12-07T14:22:18;56.50;;;22.50;;
24030;SDS011;12240;51.142;22.486;2023-12-07T14:24:45;55.20;;;21.90;;
24030;SDS011;12240;51.142;22.486;2023-12-07T14:27:14;47.90;;;19.10;;
24030;SDS011;12240;51.142;22.486;2023-12-07T14:29:42;54.10;;;20.40;;
24030;SDS011;12240;51.142;22.486;2023-12-07T14:32:08;57.40;;;21.60;;
24030;SDS011;12240;51.142;22.486;2023-12-07T14:34:36;52.10;;;20.80;;
24030;SDS011;12240;51.142;22.486;2023-12-07T14:37:03;62.80;;;22.60;;
24030;SDS011;12240;51.142;22.486;2023-12-07T14:39:35;61.20;;;21.90;;
24030;SDS011;12240;51.142;22.486;2023-12-07T14:42:02;61.30;;;22.50;;
24030;SDS011;12240;51.142;22.486;2023-12-07T14:44:31;64.70;;;23.50;;
24030;SDS011;12240;51.142;22.486;2023-12-07T14:46:58;54.60;;;21.10;;
24030;SDS011;12240;51.142;22.486;2023-12-07T14:49:28;60.00;;;24.60;;
24030;SDS011;12240;51.142;22.486;2023-12-07T14:51:55;60.00;;;22.20;;
24030;SDS011;12240;51.142;22.486;2023-12-07T14:54:25;63.60;;;25.10;;
24030;SDS011;12240;51.142;22.486;2023-12-07T14:56:55;154.50;;;61.70;;
24030;SDS011;12240;51.142;22.486;2023-12-07T14:59:23;88.60;;;42.20;;
24030;SDS011;12240;51.142;22.486;2023-12-07T15:01:50;68.70;;;31.30;;
24030;SDS011;12240;51.142;22.486;2023-12-07T15:04:17;64.50;;;28.10;;
24030;SDS011;12240;51.142;22.486;2023-12-07T15:06:58;70.80;;;26.90;;
24030;SDS011;12240;51.142;22.486;2023-12-07T15:09:26;62.20;;;23.20;;
24030;SDS011;12240;51.142;22.486;2023-12-07T15:11:53;73.40;;;29.70;;
24030;SDS011;12240;51.142;22.486;2023-12-07T15:14:21;69.90;;;26.20;;
24030;SDS011;12240;51.142;22.486;2023-12-07T15:17:02;69.00;;;28.00;;
24030;SDS011;12240;51.142;22.486;2023-12-07T15:19:31;67.60;;;28.80;;
24030;SDS011;12240;51.142;22.486;2023-12-07T15:22:01;68.20;;;23.00;;
24030;SDS011;12240;51.142;22.486;2023-12-07T15:24:27;69.30;;;23.60;;
24030;SDS011;12240;51.142;22.486;2023-12-07T15:27:04;68.80;;;25.40;;
24030;SDS011;12240;51.142;22.486;2023-12-07T15:29:32;73.90;;;26.20;;
24030;SDS011;12240;51.142;22.486;2023-12-07T15:32:02;75.60;;;28.20;;
24030;SDS011;12240;51.142;22.486;2023-12-07T15:34:29;56.00;;;22.70;;
24030;SDS011;12240;51.142;22.486;2023-12-07T15:37:05;65.20;;;25.10;;
24030;SDS011;12240;51.142;22.486;2023-12-07T15:39:32;60.80;;;22.10;;
24030;SDS011;12240;51.142;22.486;2023-12-07T15:41:59;61.40;;;23.20;;
24030;SDS011;12240;51.142;22.486;2023-12-07T15:44:29;57.60;;;24.20;;
24030;SDS011;12240;51.142;22.486;2023-12-07T15:46:57;61.00;;;22.40;;
24030;SDS011;12240;51.142;22.486;2023-12-07T15:49:26;71.50;;;25.80;;
24030;SDS011;12240;51.142;22.486;2023-12-07T15:51:53;67.40;;;25.30;;
24030;SDS011;12240;51.142;22.486;2023-12-07T15:54:25;73.50;;;27.90;;
24030;SDS011;12240;51.142;22.486;2023-12-07T15:57:04;73.60;;;30.90;;
24030;SDS011;12240;51.142;22.486;2023-12-07T15:59:33;69.50;;;27.40;;
24030;SDS011;12240;51.142;22.486;2023-12-07T16:02:00;75.00;;;28.90;;
24030;SDS011;12240;51.142;22.486;2023-12-07T16:04:28;67.70;;;25.30;;
24030;SDS011;12240;51.142;22.486;2023-12-07T16:07:01;73.00;;;28.40;;
24030;SDS011;12240;51.142;22.486;2023-12-07T16:09:34;69.40;;;28.10;;
24030;SDS011;12240;51.142;22.486;2023-12-07T16:12:02;70.30;;;26.10;;
24030;SDS011;12240;51.142;22.486;2023-12-07T16:14:31;76.80;;;27.70;;
24030;SDS011;12240;51.142;22.486;2023-12-07T16:16:59;72.90;;;29.40;;
24030;SDS011;12240;51.142;22.486;2023-12-07T16:19:26;88.20;;;32.60;;
24030;SDS011;12240;51.142;22.486;2023-12-07T16:21:54;71.70;;;27.40;;
24030;SDS011;12240;51.142;22.486;2023-12-07T16:24:21;69.70;;;24.80;;
24030;SDS011;12240;51.142;22.486;2023-12-07T16:26:48;74.60;;;27.30;;
24030;SDS011;12240;51.142;22.486;2023-12-07T16:36:05;67.40;;;24.20;;
24030;SDS011;12240;51.142;22.486;2023-12-07T16:38:45;69.60;;;25.70;;
24030;SDS011;12240;51.142;22.486;2023-12-07T16:41:12;75.20;;;26.50;;
24030;SDS011;12240;51.142;22.486;2023-12-07T16:43:38;75.20;;;27.20;;
24030;SDS011;12240;51.142;22.486;2023-12-07T16:46:05;81.40;;;31.40;;
24030;SDS011;12240;51.142;22.486;2023-12-07T16:48:33;77.60;;;30.40;;
24030;SDS011;12240;51.142;22.486;2023-12-07T16:51:01;84.90;;;31.80;;
24030;SDS011;12240;51.142;22.486;2023-12-07T16:53:32;88.80;;;32.40;;
24030;SDS011;12240;51.142;22.486;2023-12-07T16:56:00;84.60;;;28.00;;
24030;SDS011;12240;51.142;22.486;2023-12-07T16:58:27;73.80;;;27.50;;
24030;SDS011;12240;51.142;22.486;2023-12-07T17:00:56;74.00;;;28.40;;
24030;SDS011;12240;51.142;22.486;2023-12-07T17:03:23;77.00;;;28.40;;
24030;SDS011;12240;51.142;22.486;2023-12-07T17:05:52;91.80;;;34.30;;
24030;SDS011;12240;51.142;22.486;2023-12-07T17:08:19;69.10;;;24.60;;
24030;SDS011;12240;51.142;22.486;2023-12-07T17:10:48;73.80;;;27.20;;
24030;SDS011;12240;51.142;22.486;2023-12-07T17:13:15;78.50;;;29.60;;
24030;SDS011;12240;51.142;22.486;2023-12-07T17:15:42;73.10;;;26.90;;
24030;SDS011;12240;51.142;22.486;2023-12-07T17:18:10;70.30;;;26.70;;
24030;SDS011;12240;51.142;22.486;2023-12-07T17:20:38;84.10;;;33.40;;
24030;SDS011;12240;51.142;22.486;2023-12-07T17:23:05;107.60;;;43.10;;
24030;SDS011;12240;51.142;22.486;2023-12-07T17:25:31;64.60;;;26.60;;
24030;SDS011;12240;51.142;22.486;2023-12-07T17:27:58;96.00;;;34.70;;
24030;SDS011;12240;51.142;22.486;2023-12-07T17:30:26;85.50;;;34.40;;
24030;SDS011;12240;51.142;22.486;2023-12-07T17:32:53;246.70;;;76.80;;
24030;SDS011;12240;51.142;22.486;2023-12-07T17:35:20;196.20;;;82.90;;
24030;SDS011;12240;51.142;22.486;2023-12-07T17:37:47;80.40;;;32.10;;
24030;SDS011;12240;51.142;22.486;2023-12-07T17:40:14;100.40;;;42.60;;
24030;SDS011;12240;51.142;22.486;2023-12-07T17:42:40;103.90;;;38.20;;
24030;SDS011;12240;51.142;22.486;2023-12-07T17:45:07;104.10;;;36.30;;
24030;SDS011;12240;51.142;22.486;2023-12-07T17:47:34;120.00;;;57.50;;
24030;SDS011;12240;51.142;22.486;2023-12-07T17:50:01;79.40;;;30.10;;
24030;SDS011;12240;51.142;22.486;2023-12-07T17:52:28;77.30;;;28.00;;
24030;SDS011;12240;51.142;22.486;2023-12-07T17:54:54;74.70;;;29.50;;
24030;SDS011;12240;51.142;22.486;2023-12-07T17:57:21;79.60;;;29.60;;
24030;SDS011;12240;51.142;22.486;2023-12-07T17:59:48;74.20;;;27.00;;
24030;SDS011;12240;51.142;22.486;2023-12-07T18:02:15;75.90;;;28.60;;
24030;SDS011;12240;51.142;22.486;2023-12-07T18:04:42;82.20;;;31.50;;
24030;SDS011;12240;51.142;22.486;2023-12-07T18:07:08;78.30;;;30.60;;
24030;SDS011;12240;51.142;22.486;2023-12-07T18:09:35;80.50;;;32.00;;
24030;SDS011;12240;51.142;22.486;2023-12-07T18:12:07;86.50;;;30.80;;
24030;SDS011;12240;51.142;22.486;2023-12-07T18:14:34;93.50;;;34.10;;
24030;SDS011;12240;51.142;22.486;2023-12-07T18:17:01;83.40;;;29.10;;
24030;SDS011;12240;51.142;22.486;2023-12-07T18:19:27;79.70;;;28.20;;
24030;SDS011;12240;51.142;22.486;2023-12-07T18:21:54;66.90;;;24.80;;
24030;SDS011;12240;51.142;22.486;2023-12-07T18:24:28;72.50;;;26.10;;
24030;SDS011;12240;51.142;22.486;2023-12-07T18:26:55;72.00;;;27.90;;
24030;SDS011;12240;51.142;22.486;2023-12-07T18:29:23;88.30;;;33.90;;
24030;SDS011;12240;51.142;22.486;2023-12-07T18:31:50;74.90;;;27.40;;
24030;SDS011;12240;51.142;22.486;2023-12-07T18:34:19;79.80;;;30.00;;
24030;SDS011;12240;51.142;22.486;2023-12-07T18:36:46;70.20;;;25.90;;
24030;SDS011;12240;51.142;22.486;2023-12-07T18:39:13;71.80;;;26.50;;
24030;SDS011;12240;51.142;22.486;2023-12-07T18:41:40;71.00;;;27.20;;
24030;SDS011;12240;51.142;22.486;2023-12-07T18:44:08;72.90;;;26.70;;
24030;SDS011;12240;51.142;22.486;2023-12-07T18:46:35;73.90;;;25.40;;
24030;SDS011;12240;51.142;22.486;2023-12-07T18:49:02;79.10;;;28.00;;
24030;SDS011;12240;51.142;22.486;2023-12-07T18:51:30;82.30;;;28.70;;
24030;SDS011;12240;51.142;22.486;2023-12-07T18:53:57;82.80;;;28.10;;
24030;SDS011;12240;51.142;22.486;2023-12-07T18:56:24;84.30;;;29.20;;
24030;SDS011;12240;51.142;22.486;2023-12-07T18:58:50;78.40;;;27.80;;
24030;SDS011;12240;51.142;22.486;2023-12-07T19:01:17;84.40;;;27.40;;
24030;SDS011;12240;51.142;22.486;2023-12-07T19:03:44;79.80;;;29.00;;
24030;SDS011;12240;51.142;22.486;2023-12-07T19:06:14;73.00;;;26.40;;
24030;SDS011;12240;51.142;22.486;2023-12-07T19:11:12;75.20;;;27.40;;
24030;SDS011;12240;51.142;22.486;2023-12-07T19:13:42;75.70;;;27.60;;
24030;SDS011;12240;51.142;22.486;2023-12-07T19:16:09;78.10;;;27.70;;
24030;SDS011;12240;51.142;22.486;2023-12-07T19:18:36;81.20;;;27.50;;
24030;SDS011;12240;51.142;22.486;2023-12-07T19:21:03;83.30;;;31.40;;
24030;SDS011;12240;51.142;22.486;2023-12-07T19:23:30;84.00;;;28.20;;
24030;SDS011;12240;51.142;22.486;2023-12-07T19:25:57;85.90;;;27.50;;
24030;SDS011;12240;51.142;22.486;2023-12-07T19:28:24;83.00;;;29.80;;
24030;SDS011;12240;51.142;22.486;2023-12-07T19:30:51;97.30;;;34.60;;
24030;SDS011;12240;51.142;22.486;2023-12-07T19:33:18;79.40;;;27.80;;
24030;SDS011;12240;51.142;22.486;2023-12-07T19:35:48;72.50;;;26.00;;
24030;SDS011;12240;51.142;22.486;2023-12-07T19:38:15;80.90;;;29.70;;
24030;SDS011;12240;51.142;22.486;2023-12-07T19:40:44;72.20;;;26.20;;
24030;SDS011;12240;51.142;22.486;2023-12-07T19:43:10;72.90;;;27.50;;
24030;SDS011;12240;51.142;22.486;2023-12-07T19:45:38;63.80;;;25.10;;
24030;SDS011;12240;51.142;22.486;2023-12-07T19:48:05;65.10;;;24.10;;
24030;SDS011;12240;51.142;22.486;2023-12-07T19:50:32;72.80;;;26.20;;
24030;SDS011;12240;51.142;22.486;2023-12-07T19:52:59;59.90;;;22.10;;
24030;SDS011;12240;51.142;22.486;2023-12-07T19:55:26;64.50;;;23.00;;
24030;SDS011;12240;51.142;22.486;2023-12-07T19:57:57;62.40;;;22.40;;
24030;SDS011;12240;51.142;22.486;2023-12-07T20:00:32;59.30;;;22.50;;
24030;SDS011;12240;51.142;22.486;2023-12-07T20:03:00;57.10;;;21.50;;
24030;SDS011;12240;51.142;22.486;2023-12-07T20:05:27;59.40;;;25.10;;
24030;SDS011;12240;51.142;22.486;2023-12-07T20:07:55;59.90;;;23.60;;
24030;SDS011;12240;51.142;22.486;2023-12-07T20:10:22;63.90;;;25.40;;
24030;SDS011;12240;51.142;22.486;2023-12-07T20:12:49;54.10;;;21.50;;
24030;SDS011;12240;51.142;22.486;2023-12-07T20:15:16;58.70;;;21.50;;
24030;SDS011;12240;51.142;22.486;2023-12-07T20:17:43;54.20;;;20.10;;
24030;SDS011;12240;51.142;22.486;2023-12-07T20:20:11;55.00;;;21.30;;
24030;SDS011;12240;51.142;22.486;2023-12-07T20:22:38;57.00;;;20.90;;
24030;SDS011;12240;51.142;22.486;2023-12-07T20:25:05;61.70;;;23.00;;
24030;SDS011;12240;51.142;22.486;2023-12-07T20:27:33;59.80;;;21.90;;
24030;SDS011;12240;51.142;22.486;2023-12-07T20:30:00;65.10;;;22.80;;
24030;SDS011;12240;51.142;22.486;2023-12-07T20:32:27;62.20;;;23.20;;
24030;SDS011;12240;51.142;22.486;2023-12-07T20:34:54;65.60;;;22.80;;
24030;SDS011;12240;51.142;22.486;2023-12-07T20:41:07;71.10;;;23.90;;
24030;SDS011;12240;51.142;22.486;2023-12-07T20:43:33;60.30;;;21.10;;
24030;SDS011;12240;51.142;22.486;2023-12-07T20:46:00;63.80;;;23.30;;
24030;SDS011;12240;51.142;22.486;2023-12-07T20:48:27;67.30;;;22.50;;
24030;SDS011;12240;51.142;22.486;2023-12-07T20:50:54;65.00;;;22.30;;
24030;SDS011;12240;51.142;22.486;2023-12-07T20:53:21;59.90;;;21.60;;
24030;SDS011;12240;51.142;22.486;2023-12-07T20:55:48;65.20;;;24.90;;
24030;SDS011;12240;51.142;22.486;2023-12-07T20:58:14;69.10;;;22.90;;
24030;SDS011;12240;51.142;22.486;2023-12-07T21:00:42;67.70;;;25.70;;
24030;SDS011;12240;51.142;22.486;2023-12-07T21:03:16;67.10;;;24.30;;
24030;SDS011;12240;51.142;22.486;2023-12-07T21:05:43;61.30;;;21.90;;
24030;SDS011;12240;51.142;22.486;2023-12-07T21:08:10;69.70;;;23.90;;
24030;SDS011;12240;51.142;22.486;2023-12-07T21:10:38;69.10;;;22.20;;
24030;SDS011;12240;51.142;22.486;2023-12-07T21:13:04;64.80;;;22.30;;
24030;SDS011;12240;51.142;22.486;2023-12-07T21:15:31;74.60;;;26.00;;
24030;SDS011;12240;51.142;22.486;2023-12-07T21:17:58;73.00;;;24.80;;
24030;SDS011;12240;51.142;22.486;2023-12-07T21:20:25;64.40;;;23.00;;
24030;SDS011;12240;51.142;22.486;2023-12-07T21:22:52;59.50;;;21.40;;
24030;SDS011;12240;51.142;22.486;2023-12-07T21:25:18;66.20;;;23.20;;
24030;SDS011;12240;51.142;22.486;2023-12-07T21:27:45;58.90;;;19.40;;
24030;SDS011;12240;51.142;22.486;2023-12-07T21:30:12;64.30;;;22.20;;
24030;SDS011;12240;51.142;22.486;2023-12-07T21:32:39;62.90;;;23.80;;
24030;SDS011;12240;51.142;22.486;2023-12-07T21:35:07;61.80;;;21.00;;
24030;SDS011;12240;51.142;22.486;2023-12-07T21:37:36;63.70;;;22.40;;
24030;SDS011;12240;51.142;22.486;2023-12-07T21:40:03;66.90;;;22.70;;
24030;SDS011;12240;51.142;22.486;2023-12-07T21:42:30;61.80;;;21.10;;
24030;SDS011;12240;51.142;22.486;2023-12-07T21:44:57;62.80;;;21.80;;
24030;SDS011;12240;51.142;22.486;2023-12-07T21:47:24;53.70;;;20.00;;
24030;SDS011;12240;51.142;22.486;2023-12-07T21:49:51;55.40;;;19.70;;
24030;SDS011;12240;51.142;22.486;2023-12-07T21:52:18;58.40;;;19.30;;
24030;SDS011;12240;51.142;22.486;2023-12-07T21:54:44;57.50;;;18.90;;
24030;SDS011;12240;51.142;22.486;2023-12-07T21:57:11;57.70;;;20.60;;
24030;SDS011;12240;51.142;22.486;2023-12-07T21:59:38;57.20;;;20.00;;
24030;SDS011;12240;51.142;22.486;2023-12-07T22:02:04;49.60;;;18.70;;
24030;SDS011;12240;51.142;22.486;2023-12-07T22:04:31;56.00;;;19.40;;
24030;SDS011;12240;51.142;22.486;2023-12-07T22:06:58;55.00;;;20.70;;
24030;SDS011;12240;51.142;22.486;2023-12-07T22:09:25;64.70;;;21.40;;
24030;SDS011;12240;51.142;22.486;2023-12-07T22:11:51;61.70;;;20.50;;
24030;SDS011;12240;51.142;22.486;2023-12-07T22:14:18;59.80;;;19.50;;
24030;SDS011;12240;51.142;22.486;2023-12-07T22:16:46;53.40;;;18.60;;
24030;SDS011;12240;51.142;22.486;2023-12-07T22:19:16;56.10;;;20.00;;
24030;SDS011;12240;51.142;22.486;2023-12-07T22:21:43;62.10;;;19.90;;
24030;SDS011;12240;51.142;22.486;2023-12-07T22:24:10;57.70;;;19.60;;
24030;SDS011;12240;51.142;22.486;2023-12-07T22:26:37;58.50;;;20.10;;
24030;SDS011;12240;51.142;22.486;2023-12-07T22:29:03;48.00;;;17.90;;
24030;SDS011;12240;51.142;22.486;2023-12-07T22:31:30;61.60;;;20.00;;
24030;SDS011;12240;51.142;22.486;2023-12-07T22:33:57;62.30;;;20.60;;
24030;SDS011;12240;51.142;22.486;2023-12-07T22:36:27;56.70;;;18.90;;
24030;SDS011;12240;51.142;22.486;2023-12-07T22:38:54;66.20;;;21.40;;
24030;SDS011;12240;51.142;22.486;2023-12-07T22:41:20;63.00;;;21.10;;
24030;SDS011;12240;51.142;22.486;2023-12-07T22:43:47;66.30;;;21.20;;
24030;SDS011;12240;51.142;22.486;2023-12-07T22:46:14;55.50;;;19.60;;
24030;SDS011;12240;51.142;22.486;2023-12-07T22:48:40;63.00;;;20.70;;
24030;SDS011;12240;51.142;22.486;2023-12-07T22:51:07;60.70;;;21.10;;
24030;SDS011;12240;51.142;22.486;2023-12-07T22:53:34;65.60;;;21.60;;
24030;SDS011;12240;51.142;22.486;2023-12-07T22:56:01;64.80;;;21.10;;
24030;SDS011;12240;51.142;22.486;2023-12-07T22:58:27;62.10;;;21.00;;
24030;SDS011;12240;51.142;22.486;2023-12-07T23:00:54;57.50;;;20.30;;
24030;SDS011;12240;51.142;22.486;2023-12-07T23:03:21;67.30;;;23.00;;
24030;SDS011;12240;51.142;22.486;2023-12-07T23:05:48;71.40;;;22.50;;
24030;SDS011;12240;51.142;22.486;2023-12-07T23:08:14;66.00;;;21.30;;
24030;SDS011;12240;51.142;22.486;2023-12-07T23:10:41;63.50;;;19.40;;
24030;SDS011;12240;51.142;22.486;2023-12-07T23:13:08;67.00;;;21.40;;
24030;SDS011;12240;51.142;22.486;2023-12-07T23:15:34;63.60;;;21.10;;
24030;SDS011;12240;51.142;22.486;2023-12-07T23:18:01;68.80;;;22.50;;
24030;SDS011;12240;51.142;22.486;2023-12-07T23:20:28;60.10;;;19.70;;
24030;SDS011;12240;51.142;22.486;2023-12-07T23:22:55;62.30;;;21.70;;
24030;SDS011;12240;51.142;22.486;2023-12-07T23:25:22;52.50;;;18.20;;
24030;SDS011;12240;51.142;22.486;2023-12-07T23:27:48;56.00;;;19.90;;
24030;SDS011;12240;51.142;22.486;2023-12-07T23:30:15;65.20;;;20.30;;
24030;SDS011;12240;51.142;22.486;2023-12-07T23:32:42;60.40;;;19.80;;
24030;SDS011;12240;51.142;22.486;2023-12-07T23:35:09;60.10;;;20.80;;
24030;SDS011;12240;51.142;22.486;2023-12-07T23:37:36;61.30;;;21.80;;
24030;SDS011;12240;51.142;22.486;2023-12-07T23:40:03;62.00;;;21.00;;
24030;SDS011;12240;51.142;22.486;2023-12-07T23:42:31;63.10;;;20.60;;
24030;SDS011;12240;51.142;22.486;2023-12-07T23:44:57;60.50;;;19.00;;
24030;SDS011;12240;51.142;22.486;2023-12-07T23:47:24;61.90;;;19.70;;
24030;SDS011;12240;51.142;22.486;2023-12-07T23:49:51;57.30;;;19.40;;
24030;SDS011;12240;51.142;22.486;2023-12-07T23:52:18;59.60;;;20.60;;
24030;SDS011;12240;51.142;22.486;2023-12-07T23:54:45;55.30;;;19.30;;
24030;SDS011;12240;51.142;22.486;2023-12-07T23:57:16;54.90;;;19.70;;
